sensor_id;sensor_type;location;lat;lon;timestamp;P1;durP1;ratioP1;P2;durP2;ratioP2
57055;SDS011;42945;51.718;5.324;2023-02-02T00:00:07;18.98;;;2.92;;
57055;SDS011;42945;51.718;5.324;2023-02-02T00:02:34;24.30;;;3.03;;
57055;SDS011;42945;51.718;5.324;2023-02-02T00:05:00;15.57;;;2.38;;
57055;SDS011;42945;51.718;5.324;2023-02-02T00:07:26;25.70;;;3.75;;
57055;SDS011;42945;51.718;5.324;2023-02-02T00:09:51;26.98;;;3.42;;
57055;SDS011;42945;51.718;5.324;2023-02-02T00:12:16;17.98;;;3.20;;
57055;SDS011;42945;51.718;5.324;2023-02-02T00:14:42;19.42;;;2.75;;
57055;SDS011;42945;51.718;5.324;2023-02-02T00:17:08;24.20;;;3.60;;
57055;SDS011;42945;51.718;5.324;2023-02-02T00:19:34;21.40;;;3.00;;
57055;SDS011;42945;51.718;5.324;2023-02-02T00:21:59;18.23;;;2.38;;
57055;SDS011;42945;51.718;5.324;2023-02-02T00:24:25;27.95;;;3.92;;
57055;SDS011;42945;51.718;5.324;2023-02-02T00:26:51;22.55;;;3.55;;
57055;SDS011;42945;51.718;5.324;2023-02-02T00:29:23;19.10;;;2.83;;
57055;SDS011;42945;51.718;5.324;2023-02-02T00:31:49;24.95;;;2.78;;
57055;SDS011;42945;51.718;5.324;2023-02-02T00:34:15;18.90;;;2.67;;
57055;SDS011;42945;51.718;5.324;2023-02-02T00:36:41;22.58;;;3.53;;
57055;SDS011;42945;51.718;5.324;2023-02-02T00:39:08;25.48;;;3.67;;
57055;SDS011;42945;51.718;5.324;2023-02-02T00:41:34;20.83;;;3.00;;
57055;SDS011;42945;51.718;5.324;2023-02-02T00:44:00;18.85;;;2.97;;
57055;SDS011;42945;51.718;5.324;2023-02-02T00:46:43;24.17;;;2.40;;
57055;SDS011;42945;51.718;5.324;2023-02-02T00:49:09;21.80;;;3.20;;
57055;SDS011;42945;51.718;5.324;2023-02-02T00:51:35;26.65;;;2.80;;
57055;SDS011;42945;51.718;5.324;2023-02-02T00:54:01;19.27;;;3.05;;
57055;SDS011;42945;51.718;5.324;2023-02-02T00:56:27;24.70;;;3.45;;
57055;SDS011;42945;51.718;5.324;2023-02-02T00:58:52;16.55;;;2.53;;
57055;SDS011;42945;51.718;5.324;2023-02-02T01:01:18;20.45;;;2.92;;
57055;SDS011;42945;51.718;5.324;2023-02-02T01:03:47;25.20;;;3.40;;
57055;SDS011;42945;51.718;5.324;2023-02-02T01:06:16;19.23;;;3.15;;
57055;SDS011;42945;51.718;5.324;2023-02-02T01:08:42;24.33;;;3.00;;
57055;SDS011;42945;51.718;5.324;2023-02-02T01:11:07;28.10;;;2.97;;
57055;SDS011;42945;51.718;5.324;2023-02-02T01:13:32;22.35;;;2.95;;
57055;SDS011;42945;51.718;5.324;2023-02-02T01:15:59;14.32;;;2.45;;
57055;SDS011;42945;51.718;5.324;2023-02-02T01:18:26;23.05;;;3.42;;
57055;SDS011;42945;51.718;5.324;2023-02-02T01:20:59;28.17;;;3.47;;
57055;SDS011;42945;51.718;5.324;2023-02-02T01:23:26;18.70;;;2.60;;
57055;SDS011;42945;51.718;5.324;2023-02-02T01:25:53;23.00;;;3.17;;
57055;SDS011;42945;51.718;5.324;2023-02-02T01:28:22;19.98;;;3.22;;
57055;SDS011;42945;51.718;5.324;2023-02-02T01:30:48;16.77;;;2.00;;
57055;SDS011;42945;51.718;5.324;2023-02-02T01:33:14;25.33;;;3.53;;
57055;SDS011;42945;51.718;5.324;2023-02-02T01:35:44;26.42;;;2.92;;
57055;SDS011;42945;51.718;5.324;2023-02-02T01:38:13;28.70;;;3.70;;
57055;SDS011;42945;51.718;5.324;2023-02-02T01:40:45;24.17;;;3.20;;
57055;SDS011;42945;51.718;5.324;2023-02-02T01:43:26;27.85;;;3.15;;
57055;SDS011;42945;51.718;5.324;2023-02-02T01:46:10;35.50;;;3.05;;
57055;SDS011;42945;51.718;5.324;2023-02-02T01:48:37;22.95;;;3.00;;
57055;SDS011;42945;51.718;5.324;2023-02-02T01:51:06;29.25;;;3.70;;
57055;SDS011;42945;51.718;5.324;2023-02-02T01:53:37;28.17;;;3.30;;
57055;SDS011;42945;51.718;5.324;2023-02-02T01:56:05;23.33;;;3.05;;
57055;SDS011;42945;51.718;5.324;2023-02-02T01:58:33;27.35;;;4.22;;
57055;SDS011;42945;51.718;5.324;2023-02-02T02:01:00;25.90;;;3.38;;
57055;SDS011;42945;51.718;5.324;2023-02-02T02:03:26;17.80;;;2.53;;
57055;SDS011;42945;51.718;5.324;2023-02-02T02:05:57;25.67;;;2.67;;
57055;SDS011;42945;51.718;5.324;2023-02-02T02:08:30;24.15;;;2.90;;
57055;SDS011;42945;51.718;5.324;2023-02-02T02:10:58;22.88;;;2.90;;
57055;SDS011;42945;51.718;5.324;2023-02-02T02:13:24;32.20;;;4.05;;
57055;SDS011;42945;51.718;5.324;2023-02-02T02:21:49;21.73;;;3.42;;
57055;SDS011;42945;51.718;5.324;2023-02-02T02:36:33;24.40;;;3.00;;
57055;SDS011;42945;51.718;5.324;2023-02-02T02:39:14;21.73;;;2.50;;
57055;SDS011;42945;51.718;5.324;2023-02-02T02:41:47;20.98;;;2.80;;
57055;SDS011;42945;51.718;5.324;2023-02-02T02:44:16;23.60;;;2.67;;
57055;SDS011;42945;51.718;5.324;2023-02-02T02:46:43;21.00;;;3.33;;
57055;SDS011;42945;51.718;5.324;2023-02-02T02:49:10;29.92;;;3.55;;
57055;SDS011;42945;51.718;5.324;2023-02-02T02:54:22;27.27;;;3.65;;
57055;SDS011;42945;51.718;5.324;2023-02-02T03:05:22;25.92;;;3.00;;
57055;SDS011;42945;51.718;5.324;2023-02-02T03:07:52;29.25;;;3.97;;
57055;SDS011;42945;51.718;5.324;2023-02-02T03:10:26;30.05;;;3.50;;
57055;SDS011;42945;51.718;5.324;2023-02-02T03:12:53;28.40;;;2.92;;
57055;SDS011;42945;51.718;5.324;2023-02-02T03:15:20;20.63;;;2.97;;
57055;SDS011;42945;51.718;5.324;2023-02-02T03:17:45;29.90;;;3.60;;
57055;SDS011;42945;51.718;5.324;2023-02-02T03:20:13;13.35;;;2.70;;
57055;SDS011;42945;51.718;5.324;2023-02-02T03:22:39;32.25;;;3.47;;
57055;SDS011;42945;51.718;5.324;2023-02-02T03:25:05;27.75;;;3.53;;
57055;SDS011;42945;51.718;5.324;2023-02-02T03:27:31;27.83;;;3.53;;
57055;SDS011;42945;51.718;5.324;2023-02-02T03:29:56;26.08;;;3.33;;
57055;SDS011;42945;51.718;5.324;2023-02-02T03:32:22;21.05;;;2.55;;
57055;SDS011;42945;51.718;5.324;2023-02-02T03:34:47;19.80;;;3.00;;
57055;SDS011;42945;51.718;5.324;2023-02-02T03:37:13;24.35;;;3.50;;
57055;SDS011;42945;51.718;5.324;2023-02-02T03:39:38;24.90;;;3.13;;
57055;SDS011;42945;51.718;5.324;2023-02-02T03:42:03;22.63;;;3.40;;
57055;SDS011;42945;51.718;5.324;2023-02-02T03:44:29;20.35;;;2.65;;
57055;SDS011;42945;51.718;5.324;2023-02-02T03:46:54;25.30;;;3.10;;
57055;SDS011;42945;51.718;5.324;2023-02-02T03:49:20;23.63;;;3.08;;
57055;SDS011;42945;51.718;5.324;2023-02-02T03:51:45;14.65;;;3.08;;
57055;SDS011;42945;51.718;5.324;2023-02-02T03:54:11;30.20;;;3.80;;
57055;SDS011;42945;51.718;5.324;2023-02-02T03:56:36;18.05;;;2.63;;
57055;SDS011;42945;51.718;5.324;2023-02-02T03:59:02;27.05;;;4.20;;
57055;SDS011;42945;51.718;5.324;2023-02-02T04:01:28;18.30;;;2.78;;
57055;SDS011;42945;51.718;5.324;2023-02-02T04:03:55;27.77;;;3.25;;
57055;SDS011;42945;51.718;5.324;2023-02-02T04:06:22;19.60;;;3.30;;
57055;SDS011;42945;51.718;5.324;2023-02-02T04:08:48;21.95;;;3.22;;
57055;SDS011;42945;51.718;5.324;2023-02-02T04:11:13;14.18;;;2.20;;
57055;SDS011;42945;51.718;5.324;2023-02-02T04:13:40;23.25;;;3.08;;
57055;SDS011;42945;51.718;5.324;2023-02-02T04:16:07;22.45;;;2.95;;
57055;SDS011;42945;51.718;5.324;2023-02-02T04:18:33;23.35;;;2.92;;
57055;SDS011;42945;51.718;5.324;2023-02-02T04:21:02;22.17;;;3.38;;
57055;SDS011;42945;51.718;5.324;2023-02-02T04:23:28;19.65;;;2.75;;
57055;SDS011;42945;51.718;5.324;2023-02-02T04:25:54;22.20;;;3.72;;
57055;SDS011;42945;51.718;5.324;2023-02-02T04:28:20;23.65;;;3.08;;
57055;SDS011;42945;51.718;5.324;2023-02-02T04:30:47;24.10;;;2.78;;
57055;SDS011;42945;51.718;5.324;2023-02-02T04:33:13;29.05;;;3.70;;
57055;SDS011;42945;51.718;5.324;2023-02-02T04:35:38;25.30;;;3.10;;
57055;SDS011;42945;51.718;5.324;2023-02-02T04:38:04;18.05;;;2.53;;
57055;SDS011;42945;51.718;5.324;2023-02-02T04:40:29;19.02;;;2.70;;
57055;SDS011;42945;51.718;5.324;2023-02-02T04:42:56;24.05;;;2.08;;
57055;SDS011;42945;51.718;5.324;2023-02-02T04:45:21;16.27;;;2.72;;
57055;SDS011;42945;51.718;5.324;2023-02-02T04:47:47;16.92;;;2.20;;
57055;SDS011;42945;51.718;5.324;2023-02-02T04:50:12;19.80;;;2.47;;
57055;SDS011;42945;51.718;5.324;2023-02-02T04:52:38;15.85;;;2.45;;
57055;SDS011;42945;51.718;5.324;2023-02-02T04:55:03;20.35;;;2.65;;
57055;SDS011;42945;51.718;5.324;2023-02-02T04:57:28;21.25;;;2.90;;
57055;SDS011;42945;51.718;5.324;2023-02-02T04:59:54;19.17;;;2.70;;
57055;SDS011;42945;51.718;5.324;2023-02-02T05:02:19;21.00;;;3.30;;
57055;SDS011;42945;51.718;5.324;2023-02-02T05:04:44;26.45;;;3.97;;
57055;SDS011;42945;51.718;5.324;2023-02-02T05:07:10;18.33;;;2.92;;
57055;SDS011;42945;51.718;5.324;2023-02-02T05:09:35;17.38;;;2.85;;
57055;SDS011;42945;51.718;5.324;2023-02-02T05:12:02;19.90;;;3.05;;
57055;SDS011;42945;51.718;5.324;2023-02-02T05:14:27;17.67;;;2.50;;
57055;SDS011;42945;51.718;5.324;2023-02-02T05:16:53;19.15;;;2.38;;
57055;SDS011;42945;51.718;5.324;2023-02-02T05:19:18;16.08;;;2.50;;
57055;SDS011;42945;51.718;5.324;2023-02-02T05:21:43;23.02;;;2.85;;
57055;SDS011;42945;51.718;5.324;2023-02-02T05:24:10;19.95;;;2.63;;
57055;SDS011;42945;51.718;5.324;2023-02-02T05:26:36;19.23;;;2.58;;
57055;SDS011;42945;51.718;5.324;2023-02-02T05:29:01;22.65;;;2.53;;
57055;SDS011;42945;51.718;5.324;2023-02-02T05:31:30;10.57;;;1.75;;
57055;SDS011;42945;51.718;5.324;2023-02-02T05:33:56;20.60;;;2.85;;
57055;SDS011;42945;51.718;5.324;2023-02-02T05:36:21;22.38;;;2.70;;
57055;SDS011;42945;51.718;5.324;2023-02-02T05:38:47;11.13;;;2.17;;
57055;SDS011;42945;51.718;5.324;2023-02-02T05:41:12;16.23;;;2.60;;
57055;SDS011;42945;51.718;5.324;2023-02-02T05:43:37;19.95;;;2.70;;
57055;SDS011;42945;51.718;5.324;2023-02-02T05:46:03;15.23;;;2.60;;
57055;SDS011;42945;51.718;5.324;2023-02-02T05:48:29;22.92;;;3.03;;
57055;SDS011;42945;51.718;5.324;2023-02-02T05:50:56;18.10;;;3.15;;
57055;SDS011;42945;51.718;5.324;2023-02-02T05:53:26;21.53;;;2.87;;
57055;SDS011;42945;51.718;5.324;2023-02-02T05:55:53;16.40;;;2.33;;
57055;SDS011;42945;51.718;5.324;2023-02-02T05:58:18;17.35;;;2.58;;
57055;SDS011;42945;51.718;5.324;2023-02-02T06:00:43;21.30;;;2.75;;
57055;SDS011;42945;51.718;5.324;2023-02-02T06:03:08;20.20;;;3.55;;
57055;SDS011;42945;51.718;5.324;2023-02-02T06:05:35;19.70;;;2.85;;
57055;SDS011;42945;51.718;5.324;2023-02-02T06:08:00;15.98;;;2.42;;
57055;SDS011;42945;51.718;5.324;2023-02-02T06:10:26;21.13;;;3.05;;
57055;SDS011;42945;51.718;5.324;2023-02-02T06:12:51;18.45;;;3.10;;
57055;SDS011;42945;51.718;5.324;2023-02-02T06:15:16;20.30;;;2.42;;
57055;SDS011;42945;51.718;5.324;2023-02-02T06:17:42;14.95;;;1.85;;
57055;SDS011;42945;51.718;5.324;2023-02-02T06:20:07;15.70;;;3.00;;
57055;SDS011;42945;51.718;5.324;2023-02-02T06:22:33;22.17;;;2.40;;
57055;SDS011;42945;51.718;5.324;2023-02-02T06:24:58;15.23;;;2.60;;
57055;SDS011;42945;51.718;5.324;2023-02-02T06:27:24;22.17;;;2.05;;
57055;SDS011;42945;51.718;5.324;2023-02-02T06:29:49;13.13;;;2.30;;
57055;SDS011;42945;51.718;5.324;2023-02-02T06:32:14;19.90;;;3.25;;
57055;SDS011;42945;51.718;5.324;2023-02-02T06:34:41;18.70;;;3.17;;
57055;SDS011;42945;51.718;5.324;2023-02-02T06:37:06;20.00;;;2.33;;
57055;SDS011;42945;51.718;5.324;2023-02-02T06:39:32;20.50;;;2.67;;
57055;SDS011;42945;51.718;5.324;2023-02-02T06:41:57;14.50;;;3.10;;
57055;SDS011;42945;51.718;5.324;2023-02-02T06:44:22;17.42;;;2.80;;
57055;SDS011;42945;51.718;5.324;2023-02-02T06:46:47;20.75;;;3.15;;
57055;SDS011;42945;51.718;5.324;2023-02-02T06:49:14;13.63;;;2.53;;
57055;SDS011;42945;51.718;5.324;2023-02-02T06:51:39;17.38;;;2.55;;
57055;SDS011;42945;51.718;5.324;2023-02-02T06:54:05;22.33;;;3.30;;
57055;SDS011;42945;51.718;5.324;2023-02-02T06:56:30;21.70;;;3.17;;
57055;SDS011;42945;51.718;5.324;2023-02-02T06:58:55;17.33;;;2.95;;
57055;SDS011;42945;51.718;5.324;2023-02-02T07:01:21;18.23;;;2.50;;
57055;SDS011;42945;51.718;5.324;2023-02-02T07:03:49;14.70;;;2.60;;
57055;SDS011;42945;51.718;5.324;2023-02-02T07:06:23;15.73;;;2.28;;
57055;SDS011;42945;51.718;5.324;2023-02-02T07:08:51;13.68;;;2.35;;
57055;SDS011;42945;51.718;5.324;2023-02-02T07:11:17;20.10;;;1.83;;
57055;SDS011;42945;51.718;5.324;2023-02-02T07:13:43;14.88;;;2.58;;
57055;SDS011;42945;51.718;5.324;2023-02-02T07:16:09;17.50;;;2.35;;
57055;SDS011;42945;51.718;5.324;2023-02-02T07:18:36;13.75;;;2.80;;
57055;SDS011;42945;51.718;5.324;2023-02-02T07:21:03;14.75;;;2.45;;
57055;SDS011;42945;51.718;5.324;2023-02-02T07:23:29;16.52;;;2.35;;
57055;SDS011;42945;51.718;5.324;2023-02-02T07:26:02;15.88;;;2.92;;
57055;SDS011;42945;51.718;5.324;2023-02-02T07:28:28;18.92;;;3.08;;
57055;SDS011;42945;51.718;5.324;2023-02-02T07:30:54;18.15;;;2.83;;
57055;SDS011;42945;51.718;5.324;2023-02-02T07:33:19;19.90;;;2.55;;
57055;SDS011;42945;51.718;5.324;2023-02-02T07:35:44;18.00;;;2.65;;
57055;SDS011;42945;51.718;5.324;2023-02-02T07:38:10;15.95;;;2.42;;
57055;SDS011;42945;51.718;5.324;2023-02-02T07:40:35;22.08;;;2.78;;
57055;SDS011;42945;51.718;5.324;2023-02-02T07:43:00;17.30;;;2.70;;
57055;SDS011;42945;51.718;5.324;2023-02-02T07:45:26;20.20;;;2.85;;
57055;SDS011;42945;51.718;5.324;2023-02-02T07:47:58;22.05;;;2.95;;
57055;SDS011;42945;51.718;5.324;2023-02-02T07:50:24;16.63;;;3.00;;
57055;SDS011;42945;51.718;5.324;2023-02-02T07:52:50;16.67;;;2.75;;
57055;SDS011;42945;51.718;5.324;2023-02-02T07:55:16;16.23;;;2.58;;
57055;SDS011;42945;51.718;5.324;2023-02-02T07:57:41;17.23;;;2.97;;
57055;SDS011;42945;51.718;5.324;2023-02-02T08:00:07;16.98;;;3.40;;
57055;SDS011;42945;51.718;5.324;2023-02-02T08:02:33;18.33;;;2.97;;
57055;SDS011;42945;51.718;5.324;2023-02-02T08:04:59;23.20;;;2.70;;
57055;SDS011;42945;51.718;5.324;2023-02-02T08:07:24;14.73;;;2.75;;
57055;SDS011;42945;51.718;5.324;2023-02-02T08:09:49;20.05;;;3.00;;
57055;SDS011;42945;51.718;5.324;2023-02-02T08:12:15;27.98;;;3.58;;
57055;SDS011;42945;51.718;5.324;2023-02-02T08:14:40;17.02;;;2.47;;
57055;SDS011;42945;51.718;5.324;2023-02-02T08:17:06;26.08;;;3.53;;
57055;SDS011;42945;51.718;5.324;2023-02-02T08:19:32;19.67;;;2.60;;
57055;SDS011;42945;51.718;5.324;2023-02-02T08:21:57;24.98;;;3.35;;
57055;SDS011;42945;51.718;5.324;2023-02-02T08:24:22;16.17;;;2.15;;
57055;SDS011;42945;51.718;5.324;2023-02-02T08:26:47;17.08;;;2.63;;
57055;SDS011;42945;51.718;5.324;2023-02-02T08:29:13;15.35;;;2.30;;
57055;SDS011;42945;51.718;5.324;2023-02-02T08:31:41;24.83;;;2.88;;
57055;SDS011;42945;51.718;5.324;2023-02-02T08:34:08;19.20;;;2.70;;
57055;SDS011;42945;51.718;5.324;2023-02-02T08:36:34;13.13;;;2.03;;
57055;SDS011;42945;51.718;5.324;2023-02-02T08:39:03;21.25;;;2.63;;
57055;SDS011;42945;51.718;5.324;2023-02-02T08:41:31;15.85;;;2.33;;
57055;SDS011;42945;51.718;5.324;2023-02-02T08:43:57;17.90;;;2.50;;
57055;SDS011;42945;51.718;5.324;2023-02-02T08:46:22;21.90;;;2.60;;
57055;SDS011;42945;51.718;5.324;2023-02-02T08:48:48;19.45;;;2.60;;
57055;SDS011;42945;51.718;5.324;2023-02-02T08:51:14;9.90;;;2.05;;
57055;SDS011;42945;51.718;5.324;2023-02-02T08:53:43;22.17;;;2.85;;
57055;SDS011;42945;51.718;5.324;2023-02-02T08:56:17;15.73;;;2.30;;
57055;SDS011;42945;51.718;5.324;2023-02-02T08:58:45;16.90;;;2.65;;
57055;SDS011;42945;51.718;5.324;2023-02-02T09:01:13;17.02;;;2.42;;
57055;SDS011;42945;51.718;5.324;2023-02-02T09:03:40;26.05;;;2.92;;
57055;SDS011;42945;51.718;5.324;2023-02-02T09:06:06;17.60;;;2.35;;
57055;SDS011;42945;51.718;5.324;2023-02-02T09:08:34;16.15;;;2.67;;
57055;SDS011;42945;51.718;5.324;2023-02-02T09:11:03;22.40;;;2.55;;
57055;SDS011;42945;51.718;5.324;2023-02-02T09:13:38;15.50;;;2.20;;
57055;SDS011;42945;51.718;5.324;2023-02-02T09:16:05;20.27;;;2.33;;
57055;SDS011;42945;51.718;5.324;2023-02-02T09:18:32;18.13;;;2.35;;
57055;SDS011;42945;51.718;5.324;2023-02-02T09:21:01;18.10;;;2.22;;
57055;SDS011;42945;51.718;5.324;2023-02-02T09:23:29;15.05;;;2.10;;
57055;SDS011;42945;51.718;5.324;2023-02-02T09:25:55;19.02;;;2.53;;
57055;SDS011;42945;51.718;5.324;2023-02-02T09:28:20;14.95;;;2.85;;
57055;SDS011;42945;51.718;5.324;2023-02-02T09:30:45;18.35;;;2.00;;
57055;SDS011;42945;51.718;5.324;2023-02-02T09:33:11;10.57;;;1.77;;
57055;SDS011;42945;51.718;5.324;2023-02-02T09:35:36;21.05;;;3.25;;
57055;SDS011;42945;51.718;5.324;2023-02-02T09:38:01;21.15;;;2.72;;
57055;SDS011;42945;51.718;5.324;2023-02-02T09:40:26;18.77;;;2.38;;
57055;SDS011;42945;51.718;5.324;2023-02-02T09:48:41;23.05;;;3.13;;
57055;SDS011;42945;51.718;5.324;2023-02-02T09:51:15;20.65;;;2.47;;
57055;SDS011;42945;51.718;5.324;2023-02-02T09:53:49;15.55;;;2.30;;
57055;SDS011;42945;51.718;5.324;2023-02-02T09:56:21;25.25;;;2.95;;
57055;SDS011;42945;51.718;5.324;2023-02-02T09:58:52;18.42;;;2.63;;
57055;SDS011;42945;51.718;5.324;2023-02-02T10:01:25;19.33;;;2.63;;
57055;SDS011;42945;51.718;5.324;2023-02-02T10:03:57;22.27;;;2.45;;
57055;SDS011;42945;51.718;5.324;2023-02-02T10:06:35;14.80;;;2.55;;
57055;SDS011;42945;51.718;5.324;2023-02-02T10:14:48;21.38;;;2.63;;
57055;SDS011;42945;51.718;5.324;2023-02-02T10:23:12;20.20;;;2.85;;
57055;SDS011;42945;51.718;5.324;2023-02-02T10:25:37;16.67;;;2.00;;
57055;SDS011;42945;51.718;5.324;2023-02-02T10:28:17;23.48;;;2.40;;
57055;SDS011;42945;51.718;5.324;2023-02-02T10:30:45;21.70;;;2.33;;
57055;SDS011;42945;51.718;5.324;2023-02-02T10:33:26;16.98;;;2.25;;
57055;SDS011;42945;51.718;5.324;2023-02-02T10:39:03;18.83;;;2.60;;
57055;SDS011;42945;51.718;5.324;2023-02-02T10:42:14;16.45;;;2.45;;
57055;SDS011;42945;51.718;5.324;2023-02-02T10:44:52;18.30;;;2.90;;
57055;SDS011;42945;51.718;5.324;2023-02-02T10:47:24;17.70;;;2.42;;
57055;SDS011;42945;51.718;5.324;2023-02-02T10:49:54;17.70;;;2.33;;
57055;SDS011;42945;51.718;5.324;2023-02-02T10:52:31;19.02;;;2.15;;
57055;SDS011;42945;51.718;5.324;2023-02-02T10:55:02;19.25;;;2.40;;
57055;SDS011;42945;51.718;5.324;2023-02-02T11:03:11;18.63;;;2.28;;
57055;SDS011;42945;51.718;5.324;2023-02-02T11:05:39;19.42;;;3.20;;
57055;SDS011;42945;51.718;5.324;2023-02-02T11:10:54;16.73;;;2.30;;
57055;SDS011;42945;51.718;5.324;2023-02-02T11:13:24;21.27;;;2.70;;
57055;SDS011;42945;51.718;5.324;2023-02-02T11:18:40;12.90;;;1.98;;
57055;SDS011;42945;51.718;5.324;2023-02-02T11:23:58;19.45;;;2.45;;
57055;SDS011;42945;51.718;5.324;2023-02-02T11:26:26;18.02;;;2.75;;
57055;SDS011;42945;51.718;5.324;2023-02-02T11:29:04;16.27;;;2.70;;
57055;SDS011;42945;51.718;5.324;2023-02-02T11:31:38;20.38;;;2.20;;
57055;SDS011;42945;51.718;5.324;2023-02-02T11:34:07;21.30;;;2.67;;
57055;SDS011;42945;51.718;5.324;2023-02-02T11:39:40;12.50;;;2.08;;
57055;SDS011;42945;51.718;5.324;2023-02-02T11:42:11;18.55;;;2.17;;
57055;SDS011;42945;51.718;5.324;2023-02-02T11:44:41;12.05;;;1.90;;
57055;SDS011;42945;51.718;5.324;2023-02-02T11:47:15;17.77;;;2.63;;
57055;SDS011;42945;51.718;5.324;2023-02-02T11:49:48;15.13;;;2.80;;
57055;SDS011;42945;51.718;5.324;2023-02-02T11:52:20;21.35;;;2.40;;
57055;SDS011;42945;51.718;5.324;2023-02-02T11:54:51;17.85;;;2.50;;
57055;SDS011;42945;51.718;5.324;2023-02-02T11:57:21;16.98;;;2.80;;
57055;SDS011;42945;51.718;5.324;2023-02-02T11:59:48;17.73;;;2.92;;
57055;SDS011;42945;51.718;5.324;2023-02-02T12:04:45;18.90;;;2.58;;
57055;SDS011;42945;51.718;5.324;2023-02-02T12:07:21;13.40;;;2.20;;
57055;SDS011;42945;51.718;5.324;2023-02-02T12:09:52;12.23;;;2.28;;
57055;SDS011;42945;51.718;5.324;2023-02-02T12:26:49;17.92;;;2.47;;
57055;SDS011;42945;51.718;5.324;2023-02-02T12:35:10;17.08;;;2.20;;
57055;SDS011;42945;51.718;5.324;2023-02-02T12:37:50;9.35;;;1.92;;
57055;SDS011;42945;51.718;5.324;2023-02-02T12:45:56;17.35;;;2.10;;
57055;SDS011;42945;51.718;5.324;2023-02-02T12:51:48;19.05;;;2.33;;
57055;SDS011;42945;51.718;5.324;2023-02-02T13:00:00;12.82;;;1.50;;
57055;SDS011;42945;51.718;5.324;2023-02-02T13:02:50;11.63;;;1.85;;
57055;SDS011;42945;51.718;5.324;2023-02-02T13:05:40;16.52;;;2.22;;
57055;SDS011;42945;51.718;5.324;2023-02-02T13:13:31;15.38;;;2.63;;
57055;SDS011;42945;51.718;5.324;2023-02-02T13:16:04;17.10;;;2.33;;
57055;SDS011;42945;51.718;5.324;2023-02-02T13:18:47;13.05;;;2.40;;
57055;SDS011;42945;51.718;5.324;2023-02-02T13:21:20;18.63;;;2.63;;
57055;SDS011;42945;51.718;5.324;2023-02-02T13:23:49;17.98;;;2.95;;
57055;SDS011;42945;51.718;5.324;2023-02-02T13:26:17;19.10;;;2.70;;
57055;SDS011;42945;51.718;5.324;2023-02-02T13:28:49;17.10;;;3.13;;
57055;SDS011;42945;51.718;5.324;2023-02-02T13:31:22;15.88;;;2.70;;
57055;SDS011;42945;51.718;5.324;2023-02-02T13:36:37;21.42;;;3.50;;
57055;SDS011;42945;51.718;5.324;2023-02-02T13:39:11;11.18;;;2.70;;
57055;SDS011;42945;51.718;5.324;2023-02-02T13:41:45;19.23;;;3.13;;
57055;SDS011;42945;51.718;5.324;2023-02-02T13:44:31;18.90;;;3.30;;
57055;SDS011;42945;51.718;5.324;2023-02-02T13:47:07;11.45;;;2.90;;
57055;SDS011;42945;51.718;5.324;2023-02-02T13:49:45;19.95;;;3.20;;
57055;SDS011;42945;51.718;5.324;2023-02-02T13:52:28;24.25;;;3.33;;
57055;SDS011;42945;51.718;5.324;2023-02-02T13:55:22;20.58;;;3.33;;
57055;SDS011;42945;51.718;5.324;2023-02-02T14:00:24;21.15;;;3.05;;
57055;SDS011;42945;51.718;5.324;2023-02-02T14:02:58;15.75;;;3.22;;
57055;SDS011;42945;51.718;5.324;2023-02-02T14:05:33;20.95;;;2.83;;
57055;SDS011;42945;51.718;5.324;2023-02-02T14:13:21;19.02;;;3.00;;
57055;SDS011;42945;51.718;5.324;2023-02-02T14:16:54;19.05;;;3.22;;
57055;SDS011;42945;51.718;5.324;2023-02-02T14:18:54;17.42;;;2.78;;
57055;SDS011;42945;51.718;5.324;2023-02-02T14:26:49;19.02;;;3.53;;
57055;SDS011;42945;51.718;5.324;2023-02-02T14:30:12;20.48;;;3.25;;
57055;SDS011;42945;51.718;5.324;2023-02-02T14:34:48;11.95;;;2.92;;
57055;SDS011;42945;51.718;5.324;2023-02-02T14:37:18;10.13;;;3.00;;
57055;SDS011;42945;51.718;5.324;2023-02-02T14:45:39;11.85;;;3.53;;
57055;SDS011;42945;51.718;5.324;2023-02-02T14:55:28;11.65;;;2.92;;
57055;SDS011;42945;51.718;5.324;2023-02-02T14:57:57;9.30;;;2.33;;
57055;SDS011;42945;51.718;5.324;2023-02-02T15:00:27;14.48;;;3.35;;
57055;SDS011;42945;51.718;5.324;2023-02-02T15:03:03;16.27;;;3.10;;
57055;SDS011;42945;51.718;5.324;2023-02-02T15:06:00;11.18;;;3.22;;
57055;SDS011;42945;51.718;5.324;2023-02-02T15:08:38;19.55;;;3.92;;
57055;SDS011;42945;51.718;5.324;2023-02-02T15:11:05;23.05;;;4.45;;
57055;SDS011;42945;51.718;5.324;2023-02-02T15:13:51;12.45;;;3.28;;
57055;SDS011;42945;51.718;5.324;2023-02-02T15:16:26;11.25;;;3.03;;
57055;SDS011;42945;51.718;5.324;2023-02-02T15:18:58;15.10;;;3.50;;
57055;SDS011;42945;51.718;5.324;2023-02-02T15:21:31;12.40;;;3.90;;
57055;SDS011;42945;51.718;5.324;2023-02-02T15:24:00;16.13;;;3.47;;
57055;SDS011;42945;51.718;5.324;2023-02-02T15:26:30;14.77;;;3.47;;
57055;SDS011;42945;51.718;5.324;2023-02-02T15:29:13;10.65;;;3.72;;
57055;SDS011;42945;51.718;5.324;2023-02-02T15:31:45;16.58;;;4.50;;
57055;SDS011;42945;51.718;5.324;2023-02-02T15:36:45;17.40;;;4.25;;
57055;SDS011;42945;51.718;5.324;2023-02-02T15:42:02;16.42;;;4.47;;
57055;SDS011;42945;51.718;5.324;2023-02-02T15:44:55;19.00;;;4.53;;
57055;SDS011;42945;51.718;5.324;2023-02-02T15:47:23;19.27;;;4.30;;
57055;SDS011;42945;51.718;5.324;2023-02-02T15:49:54;20.90;;;4.45;;
57055;SDS011;42945;51.718;5.324;2023-02-02T15:52:25;16.73;;;3.88;;
57055;SDS011;42945;51.718;5.324;2023-02-02T15:54:57;18.05;;;4.50;;
57055;SDS011;42945;51.718;5.324;2023-02-02T16:02:37;19.55;;;3.75;;
57055;SDS011;42945;51.718;5.324;2023-02-02T16:05:23;13.35;;;4.35;;
57055;SDS011;42945;51.718;5.324;2023-02-02T16:07:49;17.85;;;4.95;;
57055;SDS011;42945;51.718;5.324;2023-02-02T16:10:17;21.02;;;4.75;;
57055;SDS011;42945;51.718;5.324;2023-02-02T16:12:44;22.88;;;4.72;;
57055;SDS011;42945;51.718;5.324;2023-02-02T16:15:18;23.33;;;5.18;;
57055;SDS011;42945;51.718;5.324;2023-02-02T16:20:24;17.75;;;4.80;;
57055;SDS011;42945;51.718;5.324;2023-02-02T16:22:51;22.42;;;4.30;;
57055;SDS011;42945;51.718;5.324;2023-02-02T16:25:20;21.20;;;4.60;;
57055;SDS011;42945;51.718;5.324;2023-02-02T16:27:47;22.38;;;4.78;;
57055;SDS011;42945;51.718;5.324;2023-02-02T16:30:35;17.42;;;4.20;;
57055;SDS011;42945;51.718;5.324;2023-02-02T16:35:53;18.35;;;4.30;;
57055;SDS011;42945;51.718;5.324;2023-02-02T16:40:47;25.77;;;4.63;;
57055;SDS011;42945;51.718;5.324;2023-02-02T16:43:15;18.17;;;3.70;;
57055;SDS011;42945;51.718;5.324;2023-02-02T16:45:48;21.55;;;4.10;;
57055;SDS011;42945;51.718;5.324;2023-02-02T16:51:22;21.60;;;4.47;;
57055;SDS011;42945;51.718;5.324;2023-02-02T16:53:59;20.30;;;4.70;;
57055;SDS011;42945;51.718;5.324;2023-02-02T16:58:54;14.00;;;3.63;;
57055;SDS011;42945;51.718;5.324;2023-02-02T17:01:35;13.93;;;3.75;;
57055;SDS011;42945;51.718;5.324;2023-02-02T17:04:04;19.77;;;4.07;;
57055;SDS011;42945;51.718;5.324;2023-02-02T17:06:32;20.95;;;3.80;;
57055;SDS011;42945;51.718;5.324;2023-02-02T17:09:18;19.70;;;3.92;;
57055;SDS011;42945;51.718;5.324;2023-02-02T17:11:56;13.88;;;3.65;;
57055;SDS011;42945;51.718;5.324;2023-02-02T17:14:29;19.88;;;4.00;;
57055;SDS011;42945;51.718;5.324;2023-02-02T17:16:57;15.95;;;3.67;;
57055;SDS011;42945;51.718;5.324;2023-02-02T17:19:23;23.30;;;4.03;;
57055;SDS011;42945;51.718;5.324;2023-02-02T17:21:51;14.90;;;3.60;;
57055;SDS011;42945;51.718;5.324;2023-02-02T17:24:18;12.20;;;3.75;;
57055;SDS011;42945;51.718;5.324;2023-02-02T17:26:44;12.88;;;3.80;;
57055;SDS011;42945;51.718;5.324;2023-02-02T17:29:11;14.30;;;4.28;;
57055;SDS011;42945;51.718;5.324;2023-02-02T17:31:43;17.25;;;3.80;;